Time;durP1;ratioP1;P1;durP2;ratioP2;P2;SDS_P1;SDS_P2;PMS_P1;PMS_P2;Temp;Humidity;BMP_temperature;BMP_pressure;BME280_temperature;BME280_humidity;BME280_pressure;Samples;Min_cycle;Max_cycle;Signal;HPM_P1;HPM_P2
2022/03/23 00:01:10;;;;;;;25.88;14.27;;;;;;;;;;5073935;28;20020;-63
2022/03/23 00:03:37;;;;;;;30.15;14.48;;;;;;;;;;5074309;28;20488;-63
2022/03/23 00:06:03;;;;;;;25.00;14.18;;;;;;;;;;5074638;28;20500;-63
2022/03/23 00:08:29;;;;;;;28.85;14.50;;;;;;;;;;5073755;28;20037;-63
2022/03/23 00:10:56;;;;;;;26.08;15.48;;;;;;;;;;5074627;28;20092;-63
2022/03/23 00:13:23;;;;;;;30.55;16.58;;;;;;;;;;5074504;28;20141;-63
2022/03/23 00:15:49;;;;;;;26.70;15.05;;;;;;;;;;5074237;28;20460;-63
2022/03/23 00:18:15;;;;;;;28.52;15.40;;;;;;;;;;5074256;28;20361;-63
2022/03/23 00:20:41;;;;;;;28.00;15.85;;;;;;;;;;5073672;28;20032;-63
2022/03/23 00:23:09;;;;;;;31.48;15.38;;;;;;;;;;5074196;28;20028;-63
2022/03/23 00:25:38;;;;;;;27.55;14.27;;;;;;;;;;5074013;28;20028;-63
2022/03/23 00:28:07;;;;;;;24.80;14.60;;;;;;;;;;5074284;28;20075;-63
2022/03/23 00:30:34;;;;;;;24.42;14.70;;;;;;;;;;5072536;28;20055;-63
2022/03/23 00:33:03;;;;;;;28.98;16.20;;;;;;;;;;5072942;28;20028;-63
2022/03/23 00:35:31;;;;;;;24.17;14.27;;;;;;;;;;5073769;28;20036;-63
2022/03/23 00:38:00;;;;;;;26.98;14.75;;;;;;;;;;5072734;28;20111;-63
2022/03/23 00:40:30;;;;;;;30.58;16.65;;;;;;;;;;5073980;28;20036;-63
2022/03/23 00:43:01;;;;;;;24.80;14.93;;;;;;;;;;5071812;28;20009;-63
2022/03/23 00:45:30;;;;;;;35.22;14.80;;;;;;;;;;5073763;28;20105;-63
2022/03/23 00:47:57;;;;;;;28.42;15.77;;;;;;;;;;5067853;28;20499;-63
2022/03/23 00:50:25;;;;;;;29.88;14.73;;;;;;;;;;5069405;28;20036;-63
2022/03/23 00:52:53;;;;;;;28.92;16.48;;;;;;;;;;5073265;28;20025;-63
2022/03/23 00:55:19;;;;;;;31.85;14.77;;;;;;;;;;5072305;28;20484;-63
2022/03/23 00:57:45;;;;;;;27.80;14.75;;;;;;;;;;5072262;28;20036;-63
2022/03/23 01:00:16;;;;;;;32.47;15.65;;;;;;;;;;5072338;28;20036;-63
2022/03/23 01:02:44;;;;;;;33.88;15.77;;;;;;;;;;5072336;28;20024;-63
2022/03/23 01:05:13;;;;;;;31.48;16.33;;;;;;;;;;5072804;28;20024;-63
2022/03/23 01:07:40;;;;;;;26.15;16.42;;;;;;;;;;5072563;28;20477;-63
2022/03/23 01:10:07;;;;;;;31.13;15.65;;;;;;;;;;5072716;28;20111;-63
2022/03/23 01:12:34;;;;;;;29.75;14.65;;;;;;;;;;5070841;28;20032;-63
2022/03/23 01:15:00;;;;;;;29.45;15.43;;;;;;;;;;5072632;28;20033;-63
2022/03/23 01:17:26;;;;;;;29.00;15.35;;;;;;;;;;5068920;28;20028;-63
2022/03/23 01:19:53;;;;;;;29.85;15.48;;;;;;;;;;5072035;28;20105;-63
2022/03/23 01:22:19;;;;;;;30.45;15.45;;;;;;;;;;5059350;28;20507;-63
2022/03/23 01:24:45;;;;;;;32.15;16.20;;;;;;;;;;5069520;28;20017;-63
2022/03/23 01:27:11;;;;;;;25.95;15.88;;;;;;;;;;5072611;28;20052;-63
2022/03/23 01:29:38;;;;;;;30.08;15.95;;;;;;;;;;5073028;28;20219;-63
2022/03/23 01:32:05;;;;;;;27.50;16.08;;;;;;;;;;5069609;28;20095;-63
2022/03/23 01:34:31;;;;;;;33.38;18.13;;;;;;;;;;5069995;28;20078;-63
2022/03/23 01:36:57;;;;;;;27.02;15.95;;;;;;;;;;5070665;28;20461;-63
2022/03/23 01:39:23;;;;;;;31.90;15.90;;;;;;;;;;5072660;28;20029;-63
2022/03/23 01:41:49;;;;;;;32.28;16.65;;;;;;;;;;5072598;28;20028;-63
2022/03/23 01:44:23;;;;;;;32.45;15.25;;;;;;;;;;5072410;28;20025;-63
2022/03/23 01:46:59;;;;;;;33.30;15.68;;;;;;;;;;5067360;28;20036;-63
2022/03/23 01:49:25;;;;;;;27.00;15.40;;;;;;;;;;5067953;28;20067;-63
2022/03/23 01:51:51;;;;;;;31.38;16.92;;;;;;;;;;5071031;28;20035;-63
2022/03/23 01:54:17;;;;;;;34.97;16.70;;;;;;;;;;5071571;28;20120;-63
2022/03/23 01:56:44;;;;;;;28.20;15.80;;;;;;;;;;5070615;28;20024;-63
2022/03/23 01:59:10;;;;;;;31.17;15.60;;;;;;;;;;5069987;28;20029;-63
2022/03/23 02:01:38;;;;;;;30.05;16.83;;;;;;;;;;5072420;28;20435;-63
2022/03/23 02:04:05;;;;;;;31.65;16.42;;;;;;;;;;5070680;28;20477;-63
2022/03/23 02:06:31;;;;;;;32.30;16.42;;;;;;;;;;5071210;28;20008;-63
2022/03/23 02:08:59;;;;;;;29.92;16.50;;;;;;;;;;5070734;28;20036;-63
2022/03/23 02:11:26;;;;;;;35.85;16.92;;;;;;;;;;5070786;28;20444;-63
2022/03/23 02:13:53;;;;;;;28.75;16.13;;;;;;;;;;5070680;28;20094;-63
2022/03/23 02:16:20;;;;;;;28.80;15.93;;;;;;;;;;5070520;28;20066;-64
2022/03/23 02:18:46;;;;;;;30.58;16.25;;;;;;;;;;5070768;28;20029;-63
2022/03/23 02:21:18;;;;;;;26.60;15.30;;;;;;;;;;5070405;28;20158;-63
2022/03/23 02:23:44;;;;;;;26.10;15.77;;;;;;;;;;5065625;28;20403;-63
2022/03/23 02:26:11;;;;;;;25.30;15.15;;;;;;;;;;5071647;28;20032;-63
2022/03/23 02:28:38;;;;;;;24.73;14.50;;;;;;;;;;5071756;28;20036;-63
2022/03/23 02:31:05;;;;;;;32.63;15.13;;;;;;;;;;5070038;28;20082;-63
2022/03/23 02:33:31;;;;;;;29.10;16.08;;;;;;;;;;5071704;28;20028;-63
2022/03/23 02:35:57;;;;;;;31.27;16.80;;;;;;;;;;5071804;28;20031;-63
2022/03/23 02:38:23;;;;;;;25.63;15.35;;;;;;;;;;5071814;28;20123;-63
2022/03/23 02:40:49;;;;;;;30.92;16.80;;;;;;;;;;5072073;28;20021;-63
2022/03/23 02:43:16;;;;;;;34.20;16.85;;;;;;;;;;5070898;28;20016;-63
2022/03/23 02:45:42;;;;;;;27.48;15.88;;;;;;;;;;5071669;28;20036;-63
2022/03/23 02:48:08;;;;;;;29.83;16.50;;;;;;;;;;5071113;28;20074;-63
2022/03/23 02:50:35;;;;;;;32.08;15.95;;;;;;;;;;5071946;28;20048;-63
2022/03/23 03:04:12;;;;;;;27.58;15.35;;;;;;;;;;5071460;28;20040;-63
2022/03/23 03:06:38;;;;;;;28.80;15.65;;;;;;;;;;5071740;28;20381;-63
2022/03/23 03:09:05;;;;;;;28.17;14.80;;;;;;;;;;5071181;28;20032;-63
2022/03/23 03:11:31;;;;;;;34.40;17.02;;;;;;;;;;5066786;28;20028;-63
2022/03/23 03:13:57;;;;;;;31.27;15.25;;;;;;;;;;5070369;28;20123;-63
2022/03/23 03:16:23;;;;;;;28.98;16.00;;;;;;;;;;5062329;28;20681;-63
2022/03/23 03:18:50;;;;;;;30.83;14.30;;;;;;;;;;5058798;28;20396;-63
2022/03/23 03:21:17;;;;;;;29.52;16.67;;;;;;;;;;5071344;28;20027;-63
2022/03/23 03:23:44;;;;;;;28.77;16.33;;;;;;;;;;5072182;28;20052;-63
2022/03/23 03:26:11;;;;;;;28.02;16.17;;;;;;;;;;5071184;28;20079;-63
2022/03/23 03:28:38;;;;;;;27.30;16.00;;;;;;;;;;5071150;28;20086;-63
2022/03/23 03:31:05;;;;;;;28.30;16.58;;;;;;;;;;5070538;28;20032;-63
2022/03/23 03:33:31;;;;;;;27.95;15.88;;;;;;;;;;5071424;28;20498;-63
2022/03/23 03:35:57;;;;;;;29.23;15.35;;;;;;;;;;5071495;28;20376;-63
2022/03/23 03:38:23;;;;;;;30.58;16.48;;;;;;;;;;5071059;28;20021;-63
2022/03/23 03:40:49;;;;;;;33.83;16.00;;;;;;;;;;5072533;28;20550;-63
2022/03/23 03:43:16;;;;;;;32.75;17.13;;;;;;;;;;5074809;28;20029;-63
2022/03/23 03:45:43;;;;;;;29.58;15.98;;;;;;;;;;5074834;28;20033;-63
2022/03/23 03:48:09;;;;;;;26.85;15.70;;;;;;;;;;5074848;28;20028;-63
2022/03/23 03:50:35;;;;;;;34.97;15.40;;;;;;;;;;5074902;28;20499;-63
2022/03/23 03:53:01;;;;;;;31.67;16.58;;;;;;;;;;5074833;28;20037;-63
2022/03/23 03:55:28;;;;;;;32.00;17.52;;;;;;;;;;5074385;28;20024;-63
2022/03/23 03:57:54;;;;;;;35.97;16.80;;;;;;;;;;5065411;28;20025;-63
2022/03/23 04:00:20;;;;;;;29.92;15.75;;;;;;;;;;5074406;28;20512;-63
2022/03/23 04:02:46;;;;;;;31.10;16.67;;;;;;;;;;5074760;28;20024;-63
2022/03/23 04:05:12;;;;;;;26.95;14.80;;;;;;;;;;5073738;28;20025;-63
2022/03/23 04:07:38;;;;;;;33.00;15.88;;;;;;;;;;5074914;28;20074;-63
2022/03/23 04:10:05;;;;;;;30.20;15.82;;;;;;;;;;5074765;28;20029;-63
2022/03/23 04:12:31;;;;;;;27.50;15.07;;;;;;;;;;5074564;28;20028;-63
2022/03/23 04:14:58;;;;;;;25.08;16.13;;;;;;;;;;5074102;28;20048;-63
2022/03/23 04:17:24;;;;;;;27.38;16.13;;;;;;;;;;5073858;28;20032;-63
2022/03/23 04:19:50;;;;;;;27.45;16.00;;;;;;;;;;5074586;28;20024;-63
2022/03/23 04:22:16;;;;;;;29.42;15.43;;;;;;;;;;5074253;28;20025;-63
2022/03/23 04:24:42;;;;;;;25.48;14.10;;;;;;;;;;5074501;28;20024;-63
2022/03/23 04:27:08;;;;;;;28.08;14.85;;;;;;;;;;5074106;28;20028;-63
2022/03/23 04:29:35;;;;;;;31.77;16.95;;;;;;;;;;5073648;28;20102;-63
2022/03/23 04:32:01;;;;;;;28.67;16.27;;;;;;;;;;5073807;28;20017;-63
2022/03/23 04:34:27;;;;;;;35.80;15.45;;;;;;;;;;5064717;28;20028;-63
2022/03/23 04:36:53;;;;;;;27.00;15.23;;;;;;;;;;5074188;28;20033;-63
2022/03/23 04:39:20;;;;;;;31.85;15.00;;;;;;;;;;5073666;28;20044;-63
2022/03/23 04:41:46;;;;;;;30.42;16.15;;;;;;;;;;5072568;28;20914;-63
2022/03/23 04:44:12;;;;;;;32.10;16.55;;;;;;;;;;5073775;28;20499;-63
2022/03/23 04:46:38;;;;;;;33.75;16.40;;;;;;;;;;5074148;28;20029;-63
2022/03/23 04:49:04;;;;;;;31.63;17.15;;;;;;;;;;5073285;28;20119;-63
2022/03/23 04:51:31;;;;;;;28.35;15.73;;;;;;;;;;5070310;28;20082;-63
2022/03/23 04:53:57;;;;;;;28.73;14.82;;;;;;;;;;5063005;28;20479;-63
2022/03/23 04:56:23;;;;;;;27.77;15.55;;;;;;;;;;5072813;28;20027;-63
2022/03/23 04:58:49;;;;;;;27.10;16.55;;;;;;;;;;5073767;28;20369;-63
2022/03/23 05:01:15;;;;;;;26.92;16.30;;;;;;;;;;5073271;28;20563;-63
2022/03/23 05:03:42;;;;;;;25.92;14.88;;;;;;;;;;5073587;28;20009;-63
2022/03/23 05:06:08;;;;;;;26.05;15.05;;;;;;;;;;5073691;28;20144;-63
2022/03/23 05:08:34;;;;;;;29.42;16.08;;;;;;;;;;5073307;28;20027;-63
2022/03/23 05:11:00;;;;;;;30.38;16.27;;;;;;;;;;5073202;28;20492;-63
2022/03/23 05:13:26;;;;;;;31.25;15.15;;;;;;;;;;5072748;28;20101;-63
2022/03/23 05:15:52;;;;;;;35.03;17.95;;;;;;;;;;5072080;28;20033;-63
2022/03/23 05:18:18;;;;;;;28.63;16.13;;;;;;;;;;5063493;28;20020;-63
2022/03/23 05:20:45;;;;;;;28.65;16.05;;;;;;;;;;5073568;28;20032;-63
2022/03/23 05:23:11;;;;;;;31.10;15.45;;;;;;;;;;5073330;28;20476;-63
2022/03/23 05:25:37;;;;;;;28.65;14.82;;;;;;;;;;5072487;28;21049;-63
2022/03/23 05:28:07;;;;;;;36.92;17.70;;;;;;;;;;5073083;28;20052;-63
2022/03/23 05:30:34;;;;;;;31.83;17.42;;;;;;;;;;5072790;28;20036;-63
2022/03/23 05:33:01;;;;;;;32.10;15.77;;;;;;;;;;5073106;28;20504;-63
2022/03/23 05:35:27;;;;;;;26.20;15.00;;;;;;;;;;5065203;28;20033;-63
2022/03/23 05:37:54;;;;;;;33.00;15.43;;;;;;;;;;5073175;28;20365;-63
2022/03/23 05:40:23;;;;;;;27.05;15.48;;;;;;;;;;5072168;28;20067;-63
2022/03/23 05:42:50;;;;;;;31.98;14.82;;;;;;;;;;5072132;28;20032;-63
2022/03/23 05:45:16;;;;;;;25.50;14.82;;;;;;;;;;5073202;28;20032;-63
2022/03/23 05:47:43;;;;;;;24.65;15.13;;;;;;;;;;5072848;28;20155;-63
2022/03/23 05:50:10;;;;;;;29.88;15.20;;;;;;;;;;5073129;28;20087;-63
2022/03/23 05:52:37;;;;;;;28.25;14.52;;;;;;;;;;5070918;28;20063;-63
2022/03/23 05:55:03;;;;;;;28.95;13.80;;;;;;;;;;5071821;28;20086;-63
2022/03/23 05:57:30;;;;;;;28.42;14.82;;;;;;;;;;5067166;28;20431;-63
2022/03/23 05:59:56;;;;;;;26.02;15.02;;;;;;;;;;5071481;28;20380;-63
2022/03/23 06:02:22;;;;;;;26.42;14.32;;;;;;;;;;5072194;28;20718;-63
2022/03/23 06:04:48;;;;;;;29.25;16.02;;;;;;;;;;5071555;28;20036;-63
2022/03/23 06:07:14;;;;;;;23.55;14.52;;;;;;;;;;5069496;28;20028;-63
2022/03/23 06:09:40;;;;;;;26.23;16.02;;;;;;;;;;5063865;28;20415;-63
2022/03/23 06:12:11;;;;;;;33.78;16.25;;;;;;;;;;5071603;28;20013;-63
2022/03/23 06:14:38;;;;;;;29.95;15.20;;;;;;;;;;5071302;28;20059;-63
2022/03/23 06:17:06;;;;;;;29.13;14.70;;;;;;;;;;5069546;28;20085;-63
2022/03/23 06:19:32;;;;;;;34.72;16.45;;;;;;;;;;5069401;28;20032;-64
2022/03/23 06:21:58;;;;;;;29.88;15.23;;;;;;;;;;5067899;28;20051;-63
2022/03/23 06:24:24;;;;;;;29.25;15.13;;;;;;;;;;5069996;28;20119;-63
2022/03/23 06:26:50;;;;;;;27.25;14.98;;;;;;;;;;5069435;28;20029;-64
2022/03/23 06:29:16;;;;;;;31.40;15.13;;;;;;;;;;5067503;28;20024;-63
2022/03/23 06:31:43;;;;;;;27.50;14.30;;;;;;;;;;5066604;28;20036;-64
2022/03/23 06:34:10;;;;;;;31.25;14.95;;;;;;;;;;5077440;28;20140;-64
2022/03/23 06:36:36;;;;;;;30.17;15.38;;;;;;;;;;5077067;28;20181;-64
2022/03/23 06:39:04;;;;;;;27.13;15.57;;;;;;;;;;5076153;28;20039;-64
2022/03/23 06:41:30;;;;;;;30.40;16.40;;;;;;;;;;5076101;28;20024;-64
2022/03/23 06:43:56;;;;;;;34.05;17.13;;;;;;;;;;5082025;28;20366;-64
2022/03/23 06:46:23;;;;;;;34.05;16.33;;;;;;;;;;5083196;28;20024;-63
2022/03/23 06:48:49;;;;;;;30.15;16.02;;;;;;;;;;5079988;28;20396;-63
2022/03/23 06:51:16;;;;;;;26.50;15.07;;;;;;;;;;5076868;28;20024;-63
2022/03/23 06:53:43;;;;;;;28.88;14.77;;;;;;;;;;5078947;28;20035;-63
2022/03/23 06:56:09;;;;;;;29.30;15.30;;;;;;;;;;5070799;28;20090;-63
2022/03/23 06:58:36;;;;;;;28.65;16.48;;;;;;;;;;5078102;28;20135;-64
2022/03/23 07:01:03;;;;;;;30.77;16.20;;;;;;;;;;5081142;28;20383;-64
2022/03/23 07:03:29;;;;;;;36.75;15.68;;;;;;;;;;5084145;28;20012;-64
2022/03/23 07:05:55;;;;;;;29.13;15.40;;;;;;;;;;5072008;28;20120;-64
2022/03/23 07:11:06;;;;;;;27.95;14.88;;;;;;;;;;5077457;28;20040;-64
2022/03/23 07:13:32;;;;;;;23.90;14.20;;;;;;;;;;5083782;28;20044;-64
2022/03/23 07:15:58;;;;;;;28.52;14.38;;;;;;;;;;5068919;28;20460;-64
2022/03/23 07:18:25;;;;;;;26.67;13.85;;;;;;;;;;5076524;28;20385;-64
2022/03/23 07:20:51;;;;;;;27.23;14.13;;;;;;;;;;5075339;28;20082;-64
2022/03/23 07:23:17;;;;;;;32.85;15.30;;;;;;;;;;5076077;28;20028;-64
2022/03/23 07:25:43;;;;;;;28.05;14.60;;;;;;;;;;5068281;28;20071;-64
2022/03/23 07:28:09;;;;;;;25.55;13.05;;;;;;;;;;5075456;28;20054;-64
2022/03/23 07:30:39;;;;;;;27.52;14.48;;;;;;;;;;5087159;28;20032;-64
2022/03/23 07:33:06;;;;;;;27.17;13.95;;;;;;;;;;5073842;28;20029;-64
2022/03/23 07:35:32;;;;;;;29.67;14.88;;;;;;;;;;5077254;28;20115;-64
2022/03/23 07:37:59;;;;;;;29.30;13.57;;;;;;;;;;5079832;28;20040;-64
2022/03/23 07:40:25;;;;;;;23.38;13.60;;;;;;;;;;5072335;28;20082;-64
2022/03/23 07:42:51;;;;;;;27.77;14.32;;;;;;;;;;5082928;28;20110;-64
2022/03/23 07:45:17;;;;;;;25.10;12.98;;;;;;;;;;5073062;28;20031;-64
2022/03/23 07:47:44;;;;;;;25.38;13.02;;;;;;;;;;5073608;28;20029;-64
2022/03/23 07:50:10;;;;;;;22.38;12.13;;;;;;;;;;5072491;28;20083;-64
2022/03/23 07:52:36;;;;;;;22.70;12.05;;;;;;;;;;5071223;28;20085;-63
2022/03/23 07:55:03;;;;;;;23.85;12.85;;;;;;;;;;5069642;28;20028;-63
2022/03/23 07:57:29;;;;;;;23.27;11.52;;;;;;;;;;5072010;28;20403;-64
2022/03/23 07:59:55;;;;;;;23.67;11.45;;;;;;;;;;5071115;28;20039;-64
2022/03/23 08:02:26;;;;;;;21.27;11.70;;;;;;;;;;5067909;28;20094;-64
2022/03/23 08:04:52;;;;;;;22.73;11.43;;;;;;;;;;5068957;28;20106;-64
2022/03/23 08:07:18;;;;;;;17.45;11.40;;;;;;;;;;5073561;28;20028;-64
2022/03/23 08:09:45;;;;;;;19.35;11.95;;;;;;;;;;5075375;28;20030;-64
2022/03/23 08:12:11;;;;;;;23.08;11.27;;;;;;;;;;5075493;28;20074;-64
2022/03/23 08:14:37;;;;;;;19.90;11.63;;;;;;;;;;5076325;28;20516;-64
2022/03/23 08:17:03;;;;;;;24.73;12.05;;;;;;;;;;5075299;28;20029;-64
2022/03/23 08:19:29;;;;;;;23.80;12.30;;;;;;;;;;5072434;28;20492;-64
2022/03/23 08:21:56;;;;;;;24.75;11.43;;;;;;;;;;5068057;28;20111;-64
2022/03/23 08:24:22;;;;;;;17.67;11.30;;;;;;;;;;5070999;28;20044;-64
2022/03/23 08:26:48;;;;;;;26.25;11.38;;;;;;;;;;5061142;28;20033;-64
2022/03/23 08:29:14;;;;;;;21.00;10.88;;;;;;;;;;5066832;28;20028;-64
2022/03/23 08:31:40;;;;;;;21.15;11.23;;;;;;;;;;5068223;28;20024;-64
2022/03/23 08:34:07;;;;;;;21.73;11.70;;;;;;;;;;5067393;28;20033;-64
2022/03/23 08:36:33;;;;;;;20.90;11.90;;;;;;;;;;5066120;28;20036;-64
2022/03/23 08:38:59;;;;;;;25.05;12.55;;;;;;;;;;5064961;28;20040;-64
2022/03/23 08:41:27;;;;;;;18.58;11.55;;;;;;;;;;5068691;28;20373;-64
2022/03/23 08:43:53;;;;;;;23.60;11.40;;;;;;;;;;5069542;28;20055;-64
2022/03/23 08:46:19;;;;;;;22.45;11.43;;;;;;;;;;5068637;28;20043;-64
2022/03/23 08:48:46;;;;;;;18.75;12.35;;;;;;;;;;5075545;28;20024;-64
2022/03/23 08:51:12;;;;;;;26.00;12.13;;;;;;;;;;5071277;28;20036;-64
2022/03/23 08:53:42;;;;;;;18.77;11.32;;;;;;;;;;5071567;28;20494;-64
2022/03/23 08:56:10;;;;;;;22.02;11.00;;;;;;;;;;5067125;28;20036;-64
2022/03/23 08:58:37;;;;;;;19.77;10.68;;;;;;;;;;5066900;28;20017;-64
2022/03/23 09:01:04;;;;;;;16.92;10.27;;;;;;;;;;5064264;28;20016;-64
2022/03/23 09:03:30;;;;;;;22.17;9.88;;;;;;;;;;5067112;28;20024;-64
2022/03/23 09:05:56;;;;;;;15.90;9.90;;;;;;;;;;5068402;28;20043;-64
2022/03/23 09:08:22;;;;;;;15.25;9.77;;;;;;;;;;5071207;28;20032;-64
2022/03/23 09:10:48;;;;;;;18.13;9.55;;;;;;;;;;5066617;28;20025;-64
2022/03/23 09:13:14;;;;;;;20.88;10.68;;;;;;;;;;5064046;28;20321;-64
2022/03/23 09:15:40;;;;;;;14.85;10.13;;;;;;;;;;5068089;28;20037;-64
2022/03/23 09:18:07;;;;;;;15.35;9.80;;;;;;;;;;5070659;28;20028;-64
2022/03/23 09:20:34;;;;;;;15.43;9.65;;;;;;;;;;5067469;28;20326;-64
2022/03/23 09:23:00;;;;;;;14.15;8.65;;;;;;;;;;5068134;28;20026;-64
2022/03/23 09:25:27;;;;;;;18.33;9.63;;;;;;;;;;5067706;28;20032;-64
2022/03/23 09:27:53;;;;;;;12.13;8.43;;;;;;;;;;5071337;28;20051;-64
2022/03/23 09:30:20;;;;;;;16.85;9.65;;;;;;;;;;5067297;28;20040;-64
2022/03/23 09:32:47;;;;;;;17.40;9.10;;;;;;;;;;5068403;28;20031;-64
2022/03/23 09:35:14;;;;;;;17.10;8.80;;;;;;;;;;5066320;28;20103;-64
2022/03/23 09:37:50;;;;;;;13.65;7.90;;;;;;;;;;5068115;28;20031;-64
2022/03/23 09:40:24;;;;;;;18.63;9.27;;;;;;;;;;5067419;28;20021;-64
2022/03/23 09:42:50;;;;;;;22.05;8.90;;;;;;;;;;5067367;28;20031;-64
2022/03/23 09:45:32;;;;;;;14.85;9.02;;;;;;;;;;5067322;28;20023;-64
2022/03/23 09:47:58;;;;;;;13.60;9.30;;;;;;;;;;5066603;28;20036;-64
2022/03/23 09:50:26;;;;;;;19.05;9.55;;;;;;;;;;5065985;28;20025;-64
2022/03/23 09:52:52;;;;;;;19.88;8.95;;;;;;;;;;5060580;28;20423;-64
2022/03/23 09:55:19;;;;;;;16.70;9.10;;;;;;;;;;5078331;28;20080;-64
2022/03/23 09:57:45;;;;;;;18.63;9.43;;;;;;;;;;5069347;28;20067;-64
2022/03/23 10:00:12;;;;;;;14.57;9.07;;;;;;;;;;5073513;28;20467;-64
2022/03/23 10:02:41;;;;;;;16.25;10.07;;;;;;;;;;5068240;28;20086;-64
2022/03/23 10:05:27;;;;;;;17.98;9.30;;;;;;;;;;5067648;28;20060;-64
2022/03/23 10:08:03;;;;;;;19.25;10.55;;;;;;;;;;5071499;28;20214;-64
2022/03/23 10:10:32;;;;;;;18.00;10.38;;;;;;;;;;5070501;28;20029;-64
2022/03/23 10:13:17;;;;;;;21.17;11.70;;;;;;;;;;5071777;28;20105;-64
2022/03/23 10:16:02;;;;;;;21.13;10.75;;;;;;;;;;5075102;28;20039;-64
2022/03/23 10:18:49;;;;;;;22.60;10.73;;;;;;;;;;5077806;28;20488;-64
2022/03/23 10:21:15;;;;;;;19.67;9.73;;;;;;;;;;5069289;28;20028;-64
2022/03/23 10:23:59;;;;;;;17.48;8.55;;;;;;;;;;5078462;28;20059;-64
2022/03/23 10:26:26;;;;;;;12.73;8.43;;;;;;;;;;5069740;28;20028;-64
2022/03/23 10:28:52;;;;;;;18.67;9.00;;;;;;;;;;5071988;28;20036;-64
2022/03/23 10:31:19;;;;;;;14.20;8.60;;;;;;;;;;5074284;28;20479;-64
2022/03/23 10:33:57;;;;;;;11.85;8.07;;;;;;;;;;5069273;28;20032;-64
2022/03/23 10:36:24;;;;;;;18.25;9.13;;;;;;;;;;5069732;28;20039;-64
2022/03/23 10:38:50;;;;;;;15.20;8.93;;;;;;;;;;5070819;28;20393;-64
2022/03/23 10:41:24;;;;;;;11.88;8.07;;;;;;;;;;5068942;28;20017;-64
2022/03/23 10:43:50;;;;;;;15.35;8.10;;;;;;;;;;5070017;28;20494;-64
2022/03/23 10:46:17;;;;;;;12.93;7.50;;;;;;;;;;5069870;28;20040;-64
2022/03/23 10:49:03;;;;;;;16.63;7.75;;;;;;;;;;5073360;28;20399;-64
2022/03/23 10:51:31;;;;;;;10.18;6.20;;;;;;;;;;5069465;28;20392;-64
2022/03/23 10:53:57;;;;;;;13.07;6.65;;;;;;;;;;5069950;28;20063;-64
2022/03/23 10:56:35;;;;;;;11.25;6.80;;;;;;;;;;5074353;28;20038;-64
2022/03/23 10:59:16;;;;;;;10.90;6.55;;;;;;;;;;5071975;28;20045;-64
2022/03/23 11:01:58;;;;;;;11.77;7.10;;;;;;;;;;5069305;28;20519;-64
2022/03/23 11:04:28;;;;;;;17.30;7.80;;;;;;;;;;5071597;28;20369;-64
2022/03/23 11:06:56;;;;;;;12.60;7.20;;;;;;;;;;5072698;28;20025;-64
2022/03/23 11:17:48;;;;;;;13.45;6.95;;;;;;;;;;5069576;28;20485;-64
2022/03/23 11:20:16;;;;;;;14.68;7.40;;;;;;;;;;5067512;28;20036;-64
2022/03/23 11:22:43;;;;;;;9.63;6.45;;;;;;;;;;5067612;28;20065;-64
2022/03/23 11:25:09;;;;;;;18.33;7.95;;;;;;;;;;5075848;28;20092;-64
2022/03/23 11:27:36;;;;;;;13.07;7.05;;;;;;;;;;5061739;28;20108;-64
2022/03/23 11:30:03;;;;;;;16.63;7.40;;;;;;;;;;5065161;28;20021;-64
2022/03/23 11:32:39;;;;;;;12.75;6.55;;;;;;;;;;5064082;28;20064;-64
2022/03/23 11:35:06;;;;;;;11.65;6.43;;;;;;;;;;5068413;28;20094;-63
2022/03/23 11:37:34;;;;;;;13.82;7.13;;;;;;;;;;5073251;28;20029;-64
2022/03/23 11:40:00;;;;;;;10.95;5.85;;;;;;;;;;5066771;28;21688;-65
2022/03/23 11:42:27;;;;;;;14.27;6.38;;;;;;;;;;5064488;28;20033;-64
2022/03/23 11:44:54;;;;;;;12.57;6.63;;;;;;;;;;5068541;28;20040;-64
2022/03/23 11:47:28;;;;;;;11.27;7.15;;;;;;;;;;5073444;28;20388;-65
2022/03/23 11:50:25;;;;;;;13.13;6.43;;;;;;;;;;5067397;28;20427;-64
2022/03/23 11:53:07;;;;;;;10.65;5.82;;;;;;;;;;5066892;28;20131;-64
2022/03/23 11:55:40;;;;;;;11.20;5.75;;;;;;;;;;5068096;28;20124;-64
2022/03/23 11:58:24;;;;;;;10.38;6.00;;;;;;;;;;5069155;28;20032;-64
2022/03/23 12:00:55;;;;;;;12.25;6.20;;;;;;;;;;5060990;28;20025;-64
2022/03/23 12:03:40;;;;;;;10.25;5.28;;;;;;;;;;5070254;28;20017;-64
2022/03/23 12:06:11;;;;;;;11.15;5.82;;;;;;;;;;5071814;28;20021;-64
2022/03/23 12:08:47;;;;;;;11.63;6.00;;;;;;;;;;5070576;28;20106;-64
2022/03/23 12:11:32;;;;;;;11.40;6.15;;;;;;;;;;5067283;28;20044;-65
2022/03/23 12:13:59;;;;;;;12.88;5.95;;;;;;;;;;5072932;28;20400;-64
2022/03/23 12:16:44;;;;;;;10.57;6.15;;;;;;;;;;5071237;28;20043;-64
2022/03/23 12:19:11;;;;;;;9.57;5.35;;;;;;;;;;5072407;28;20016;-64
2022/03/23 12:21:50;;;;;;;17.77;6.07;;;;;;;;;;5075236;28;20039;-63
2022/03/23 12:24:39;;;;;;;7.93;4.63;;;;;;;;;;5069457;28;20032;-66
2022/03/23 12:27:24;;;;;;;7.22;4.88;;;;;;;;;;5060303;28;20431;-64
2022/03/23 12:29:50;;;;;;;8.05;5.30;;;;;;;;;;5070948;28;20036;-64
2022/03/23 12:32:16;;;;;;;9.40;4.97;;;;;;;;;;5072758;28;20047;-64
2022/03/23 12:34:44;;;;;;;7.47;4.75;;;;;;;;;;5064697;28;20507;-65
2022/03/23 12:37:11;;;;;;;8.75;5.03;;;;;;;;;;5065412;28;20527;-64
2022/03/23 12:39:41;;;;;;;10.68;4.97;;;;;;;;;;5068746;28;20465;-64
2022/03/23 12:42:13;;;;;;;9.45;5.05;;;;;;;;;;5067074;28;20078;-65
2022/03/23 12:44:40;;;;;;;12.10;4.80;;;;;;;;;;5074976;28;20418;-65
2022/03/23 12:47:07;;;;;;;7.70;4.50;;;;;;;;;;5074034;28;20040;-65
2022/03/23 12:58:02;;;;;;;9.60;6.00;;;;;;;;;;5064030;28;20037;-65
2022/03/23 13:00:30;;;;;;;9.93;5.15;;;;;;;;;;5063212;28;20037;-65
2022/03/23 13:03:05;;;;;;;7.50;5.38;;;;;;;;;;5068862;28;20028;-65
2022/03/23 13:05:32;;;;;;;13.60;5.82;;;;;;;;;;5071512;28;20101;-65
2022/03/23 13:07:58;;;;;;;16.58;5.50;;;;;;;;;;5065924;28;20066;-65
2022/03/23 13:10:27;;;;;;;9.00;5.70;;;;;;;;;;5069035;28;20419;-64
2022/03/23 13:13:05;;;;;;;6.45;4.60;;;;;;;;;;5068160;28;20048;-64
2022/03/23 13:15:31;;;;;;;9.60;5.47;;;;;;;;;;5071195;28;20071;-64
2022/03/23 13:17:57;;;;;;;10.88;5.65;;;;;;;;;;5068217;28;20029;-64
2022/03/23 13:20:26;;;;;;;8.30;5.70;;;;;;;;;;5069470;28;20090;-64
2022/03/23 13:22:53;;;;;;;9.63;5.25;;;;;;;;;;5070244;28;20039;-65
2022/03/23 13:25:20;;;;;;;9.85;4.38;;;;;;;;;;5068901;28;20387;-64
2022/03/23 13:27:47;;;;;;;12.50;6.03;;;;;;;;;;5066717;28;20445;-64
2022/03/23 13:30:17;;;;;;;11.38;5.60;;;;;;;;;;5068572;28;20036;-64
2022/03/23 13:32:48;;;;;;;13.18;5.13;;;;;;;;;;5068705;28;20197;-64
2022/03/23 13:35:18;;;;;;;10.43;5.97;;;;;;;;;;5068816;28;20036;-64
2022/03/23 13:37:55;;;;;;;15.55;5.85;;;;;;;;;;5066761;28;20417;-64
2022/03/23 13:40:24;;;;;;;12.07;6.10;;;;;;;;;;5067747;28;20033;-64
2022/03/23 13:45:38;;;;;;;11.25;6.45;;;;;;;;;;5071502;28;20043;-64
2022/03/23 13:48:08;;;;;;;12.68;6.45;;;;;;;;;;5069266;28;20098;-64
2022/03/23 13:50:35;;;;;;;10.07;6.40;;;;;;;;;;5066655;28;20403;-65
2022/03/23 13:53:01;;;;;;;8.40;5.07;;;;;;;;;;5066839;28;21234;-65
2022/03/23 13:55:27;;;;;;;10.63;6.57;;;;;;;;;;5068190;28;20567;-64
2022/03/23 13:57:53;;;;;;;13.27;6.63;;;;;;;;;;5069548;28;20021;-64
2022/03/23 14:00:22;;;;;;;11.68;6.32;;;;;;;;;;5069253;28;20075;-64
2022/03/23 14:02:50;;;;;;;13.15;7.47;;;;;;;;;;5070267;28;20028;-64
2022/03/23 14:05:17;;;;;;;11.63;6.47;;;;;;;;;;5071061;28;20468;-64
2022/03/23 14:07:44;;;;;;;13.23;6.55;;;;;;;;;;5067503;28;20495;-64
2022/03/23 14:10:10;;;;;;;10.88;7.25;;;;;;;;;;5064274;28;20024;-64
2022/03/23 14:12:37;;;;;;;10.93;6.80;;;;;;;;;;5071119;28;20131;-64
2022/03/23 14:15:03;;;;;;;12.07;6.97;;;;;;;;;;5071174;28;20036;-64
2022/03/23 14:17:34;;;;;;;12.70;6.20;;;;;;;;;;5066801;28;20037;-64
2022/03/23 14:20:04;;;;;;;11.32;5.93;;;;;;;;;;5066999;28;20469;-64
2022/03/23 14:22:32;;;;;;;8.25;5.82;;;;;;;;;;5067303;28;20025;-64
2022/03/23 14:24:59;;;;;;;15.55;6.13;;;;;;;;;;5069420;28;20497;-64
2022/03/23 14:27:32;;;;;;;9.65;5.80;;;;;;;;;;5068545;28;20033;-64
2022/03/23 14:30:07;;;;;;;11.32;6.13;;;;;;;;;;5068652;28;20024;-64
2022/03/23 14:32:41;;;;;;;14.32;7.28;;;;;;;;;;5069488;28;20115;-64
2022/03/23 14:35:21;;;;;;;12.50;7.70;;;;;;;;;;5069524;28;20032;-64
2022/03/23 14:37:51;;;;;;;17.27;8.63;;;;;;;;;;5068920;28;20064;-64
2022/03/23 14:40:22;;;;;;;14.57;8.13;;;;;;;;;;5069250;28;20051;-64
2022/03/23 14:42:48;;;;;;;11.00;7.18;;;;;;;;;;5070062;28;20044;-64
2022/03/23 14:45:34;;;;;;;14.07;7.75;;;;;;;;;;5069059;28;20135;-64
2022/03/23 14:48:02;;;;;;;13.93;7.70;;;;;;;;;;5069747;28;20507;-64
2022/03/23 14:50:28;;;;;;;15.00;8.48;;;;;;;;;;5068673;28;20442;-64
2022/03/23 14:52:54;;;;;;;13.13;8.65;;;;;;;;;;5065168;28;20067;-64
2022/03/23 14:55:22;;;;;;;18.02;9.02;;;;;;;;;;5069101;28;20017;-64
2022/03/23 14:57:49;;;;;;;11.77;8.40;;;;;;;;;;5068248;28;20024;-64
2022/03/23 15:00:16;;;;;;;13.25;8.82;;;;;;;;;;5068490;28;20029;-64
2022/03/23 15:02:42;;;;;;;12.85;8.52;;;;;;;;;;5070500;28;20024;-64